Latest Coastal Weather Observations for Port Pirie Airport AWS***

IDS60701

Issued at 2:25 pm CST Tuesday 2 September 2014 (issued every 10 minutes, with the page automatically refreshed every 10 minutes)

About coastal observations | Map of coastal stations | Coastal observations for SA | Marine services | Other Formats
Station Details ID: 250006 Name: PORT PIRIE AERODROME AWS Lat: -33.23 Lon: 138.00 Height: 10.0 m
Data from the previous 72 hours. | See also: Recent months for locations in South Australia
Date/Time
CST
Temp

°C
Wind Pressure Rain
since 9am
mm
Weather Cloud Vis
km
Sea
Height
m
Swell
Dir
 
Speed
knots
Gust
knots
hPa Trend Height
m
Period
s
Dir
02/02:00pm 14.1 SW 13 21 - - 0.0 - - - - - - -
02/01:30pm 14.5 SSW 10 14 - - 0.0 - - - - - - -
02/01:00pm 14.7 SSW 12 16 - - 0.0 - - - - - - -
02/12:30pm 14.3 S 9 15 - - 0.0 - - - - - - -
02/12:00pm 14.4 SSW 9 14 - - 0.0 - - - - - - -
02/11:30am 14.5 S 10 16 - - 0.0 - - - - - - -
02/11:00am 14.2 S 11 17 - - 0.0 - - - - - - -
02/10:30am 13.4 S 10 14 - - 0.0 - - - - - - -
02/10:00am 12.6 S 12 16 - - 0.0 - - - - - - -
02/09:30am 11.9 S 10 13 - - 0.0 - - - - - - -
02/09:00am 10.9 SSW 9 12 - - 5.6 - - - - - - -
02/08:30am 10.0 S 6 9 - - 5.6 - - - - - - -
02/08:00am 8.1 S 2 4 - - 5.6 - - - - - - -
02/07:30am 6.2 E 1 1 - - 5.6 - - - - - - -
02/07:00am 4.8 NE 1 2 - - 5.6 - - - - - - -
02/06:30am 3.8 ESE 2 2 - - 5.6 - - - - - - -
02/06:00am 4.2 ESE 2 3 - - 5.6 - - - - - - -
02/05:30am 4.7 SE 2 3 - - 5.6 - - - - - - -
02/05:00am 4.7 E 2 3 - - 5.6 - - - - - - -
02/04:30am 5.7 ESE 3 5 - - 5.6 - - - - - - -
02/04:00am 7.3 S 2 4 - - 5.6 - - - - - - -
02/03:30am 5.8 ESE 2 3 - - 4.8 - - - - - - -
02/03:00am 7.3 NNW 2 5 - - 4.8 - - - - - - -
02/02:30am 7.8 SSE 2 4 - - 4.8 - - - - - - -
02/02:00am 8.5 WSW 2 4 - - 4.8 - - - - - - -
02/01:30am 7.6 SSE 1 2 - - 4.8 - - - - - - -
02/01:00am 7.4 NE 2 3 - - 4.8 - - - - - - -
02/12:30am 7.7 ESE 2 4 - - 4.4 - - - - - - -
02/12:00am 8.6 S 3 6 - - 4.4 - - - - - - -
 
Date/Time
CST
Temp

°C
Wind Pressure Rain
since 9am
mm
Weather Cloud Vis
km
Sea
Height
m
Swell
Dir
 
Speed
knots
Gust
knots
hPa Trend Height
m
Period
s
Dir
01/11:30pm 9.4 S 5 10 - - 4.4 - - - - - - -
01/11:00pm 9.4 WSW 3 8 - - 4.4 - - - - - - -
01/10:30pm 9.1 SSW 6 8 - - 4.2 - - - - - - -
01/10:00pm 10.2 SW 8 12 - - 4.2 - - - - - - -
01/09:30pm 9.7 WSW 4 9 - - 4.0 - - - - - - -
01/09:00pm 10.1 WNW 3 6 - - 3.0 Rain - - - - - -
01/08:30pm 10.0 SW 3 5 - - 2.8 - - - - - - -
01/08:00pm 9.6 SSW 8 10 - - 2.8 - - - - - - -
01/07:43pm 9.5 SW 16 22 - - 2.0 - - - - - - -
01/07:30pm 10.3 WSW 2 5 - - 1.6 - - - - - - -
01/07:00pm 11.2 SW 7 8 - - 1.6 - - - - - - -
01/06:30pm 12.4 SW 7 11 - - 1.6 - - - - - - -
01/06:00pm 12.6 SW 8 15 - - 1.6 - - - - - - -
01/05:30pm 12.9 SW 9 13 - - 1.6 - - - - - - -
01/05:00pm 13.1 SW 15 22 - - 1.6 - - - - - - -
01/04:30pm 14.6 SW 11 17 - - 1.6 - - - - - - -
01/04:00pm 14.4 SSW 11 16 - - 1.6 - - - - - - -
01/03:30pm 15.0 SW 11 16 - - 1.6 - - - - - - -
01/03:00pm 15.5 SW 12 19 - - 1.6 - - - - - - -
01/02:30pm 16.6 SW 12 17 - - 1.6 - - - - - - -
01/02:00pm 15.6 SW 11 18 - - 1.6 - - - - - - -
01/01:30pm 15.6 WSW 9 15 - - 1.6 - - - - - - -
01/01:00pm 14.5 WSW 8 13 - - 1.6 - - - - - - -
01/12:30pm 13.7 SW 9 13 - - 1.6 - - - - - - -
01/12:00pm 13.4 SW 8 11 - - 1.6 Recent precip. - - - - - -
01/11:30am 12.7 SW 8 13 - - 1.6 - - - - - - -
01/11:00am 12.4 SSW 12 17 - - 1.2 - - - - - - -
01/10:30am 13.2 SW 12 17 - - 1.0 - - - - - - -
01/10:00am 13.9 WNW 5 8 - - 0.2 - - - - - - -
01/09:30am 13.4 NW 4 6 - - 0.2 - - - - - - -
01/09:00am 13.0 NNW 3 6 - - 7.4 - - - - - - -
01/08:30am 12.6 W 2 4 - - 7.4 - - - - - - -
01/08:00am 12.3 E 3 5 - - 7.4 - - - - - - -
01/07:30am 12.1 NNE 6 9 - - 7.2 - - - - - - -
01/07:00am 12.2 ESE 3 5 - - 7.2 - - - - - - -
01/06:30am 12.5 NW 2 4 - - 5.2 - - - - - - -
01/06:00am 12.5 SSW 4 7 - - 4.0 Rain - - - - - -
01/05:30am 12.6 S 2 4 - - 3.8 - - - - - - -
01/05:00am 12.7 S 5 6 - - 3.2 - - - - - - -
01/04:30am 13.1 SW 6 8 - - 3.0 - - - - - - -
01/04:00am 13.2 SSW 5 8 - - 2.8 - - - - - - -
01/03:30am 13.2 SSW 1 3 - - 2.8 - - - - - - -
01/03:00am 13.2 WNW 2 6 - - 1.8 Rain - - - - - -
01/02:30am 12.9 W 2 4 - - 0.4 - - - - - - -
01/02:00am 12.7 N 2 3 - - 0.0 - - - - - - -
01/01:30am 12.7 N 2 4 - - 0.0 - - - - - - -
01/01:00am 12.1 NE 2 5 - - 0.0 - - - - - - -
01/12:30am 12.3 E 3 4 - - 0.0 - - - - - - -
01/12:00am 13.8 S 3 6 - - 0.0 - - - - - - -
 
Date/Time
CST
Temp

°C
Wind Pressure Rain
since 9am
mm
Weather Cloud Vis
km
Sea
Height
m
Swell
Dir
 
Speed
knots
Gust
knots
hPa Trend Height
m
Period
s
Dir
31/11:30pm 14.7 S 7 12 - - 0.0 - - - - - - -
31/11:00pm 14.5 SSW 5 6 - - 0.0 - - - - - - -
31/10:30pm 15.4 SSW 7 13 - - 0.0 - - - - - - -
31/10:00pm 16.2 WSW 7 11 - - 0.0 - - - - - - -
31/09:30pm 17.2 SW 7 12 - - 0.0 - - - - - - -
31/09:00pm 18.3 W 2 7 - - 0.0 - - - - - - -
31/08:30pm 17.4 W 5 10 - - 0.0 - - - - - - -
31/08:00pm 18.5 NNE 6 7 - - 0.0 - - - - - - -
31/07:30pm 18.7 NNE 5 7 - - 0.0 - - - - - - -
31/07:00pm 20.8 NNE 6 8 - - 0.0 - - - - - - -
31/06:30pm 22.4 NNE 7 11 - - 0.0 - - - - - - -
31/06:00pm 23.0 N 6 12 - - 0.0 - - - - - - -
31/05:30pm 24.0 N 10 16 - - 0.0 - - - - - - -
31/05:00pm 24.1 N 10 19 - - 0.0 - - - - - - -
31/04:30pm 24.6 N 10 15 - - 0.0 - - - - - - -
31/04:00pm 25.0 N 11 18 - - 0.0 - - - - - - -
31/03:30pm 25.0 N 11 19 - - 0.0 - - - - - - -
31/03:00pm 25.4 N 11 17 - - 0.0 - - - - - - -
31/02:30pm 24.5 N 11 18 - - 0.0 - - - - - - -
31/02:00pm 24.3 N 13 21 - - 0.0 - - - - - - -
31/01:30pm 24.0 N 11 20 - - 0.0 - - - - - - -
31/01:00pm 24.2 N 15 24 - - 0.0 - - - - - - -
31/12:30pm 24.1 N 14 22 - - 0.0 - - - - - - -
31/12:00pm 21.8 N 11 18 - - 0.0 - - - - - - -
31/11:30am 22.6 N 12 20 - - 0.0 - - - - - - -
31/11:00am 22.1 N 14 24 - - 0.0 - - - - - - -
31/10:30am 20.2 N 13 23 - - 0.0 - - - - - - -
31/10:00am 19.2 N 11 20 - - 0.0 - - - - - - -
31/09:30am 17.3 N 8 15 - - 0.0 - - - - - - -
31/09:00am 16.8 N 8 15 - - 0.0 - - - - - - -
31/08:30am 15.9 N 8 14 - - 0.0 - - - - - - -
31/08:00am 16.1 N 7 11 - - 0.0 - - - - - - -
31/07:30am 15.1 N 6 10 - - 0.0 - - - - - - -
31/07:00am 14.0 N 4 6 - - 0.0 - - - - - - -
31/06:30am 13.6 N 5 8 - - 0.0 - - - - - - -
31/06:00am 14.0 N 6 9 - - 0.0 - - - - - - -
31/05:30am 14.6 N 5 9 - - 0.0 - - - - - - -
31/05:00am 14.6 N 6 10 - - 0.0 - - - - - - -
31/04:30am 14.0 N 6 10 - - 0.0 - - - - - - -
31/04:00am 13.5 N 5 9 - - 0.0 - - - - - - -
31/03:30am 9.3 WNW 3 5 - - 0.0 - - - - - - -
31/03:00am 7.4 E 2 3 - - 0.0 - - - - - - -
31/02:30am 7.8 ENE 2 3 - - 0.0 - - - - - - -
31/02:00am 9.6 NE 5 6 - - 0.0 - - - - - - -
31/01:30am 7.8 NE 1 2 - - 0.0 - - - - - - -
31/01:00am 7.6 E 2 3 - - 0.0 - - - - - - -
31/12:30am 9.0 E 4 5 - - 0.0 - - - - - - -
31/12:00am 13.9 N 4 5 - - 0.0 - - - - - - -
 
Date/Time
CST
Temp

°C
Wind Pressure Rain
since 9am
mm
Weather Cloud Vis
km
Sea
Height
m
Swell
Dir
 
Speed
knots
Gust
knots
hPa Trend Height
m
Period
s
Dir
30/11:30pm 11.8 NW 4 7 - - 0.0 - - - - - - -
30/11:00pm 10.2 N 3 5 - - 0.0 - - - - - - -
30/10:30pm 10.6 NNE 2 3 - - 0.0 - - - - - - -
30/10:00pm 11.9 NE 4 5 - - 0.0 - - - - - - -
30/09:30pm 11.4 NE 4 5 - - 0.0 - - - - - - -
30/09:00pm 10.8 ENE 3 3 - - 0.0 - - - - - - -
30/08:30pm 12.3 NE 4 5 - - 0.0 - - - - - - -
30/08:00pm 13.9 NE 4 4 - - 0.0 - - - - - - -
30/07:30pm 14.6 NE 5 5 - - 0.0 - - - - - - -
30/07:00pm 15.9 NE 4 5 - - 0.0 - - - - - - -
30/06:30pm 20.5 N 6 9 - - 0.0 - - - - - - -
30/06:00pm 21.4 N 6 8 - - 0.0 - - - - - - -
30/05:30pm 21.9 N 5 9 - - 0.0 - - - - - - -
30/05:00pm 23.3 N 7 10 - - 0.0 - - - - - - -
30/04:30pm 23.9 N 7 13 - - 0.0 - - - - - - -
30/04:00pm 24.9 N 8 15 - - 0.0 - - - - - - -
30/03:30pm 24.6 N 8 16 - - 0.0 - - - - - - -
30/03:00pm 24.8 N 9 15 - - 0.0 - - - - - - -
30/02:30pm 24.5 N 9 15 - - 0.0 - - - - - - -

Other Formats:

Comma delimited format used in spreadsheet applications
http://www.bom.gov.au/fwo/IDS60701/IDS60701.99001.axf

JavaScript Object Notation format (JSON) in row-major order
http://www.bom.gov.au/fwo/IDS60701/IDS60701.99001.json